Main page
METAR-TAF:

METAR-TAF

Airports :

Nakhon Phanom Airport

Nakhon Phanom, Thailand

latitude: 17-23-02N, longitude: 104-38-35E, elevation: 179 m

Current weather observation

The report was made 1 hour and 16 minutes ago, at 01:00 UTC
Wind 4 kt from the North/Northeast, varying between North/Northwest and East/Northeast
Temperature 16°C
Humidity 68%
Pressure 1021 hPa
Visibility: 7000 m

METAR: VTUW 090100Z 03004KT 340V060 7000 NSC 16/10 Q1021 NOSIG

Time: 09:16 (02:16 UTC)

Forecast

The report was made 3 hours and 16 minutes ago, at 23:00 UTC
Forecast valid from 09 at 00 UTC to 09 at 24 UTC
Wind 7 kt from the East
Visibility: 8000 m
Few clouds at a height of 3000 ft

TAF: VTUW 082300Z 0900/0924 09007KT 8000 FEW030

Weather observations and forecasts of more than 4000 airports (METAR and TAF reports).

The available stations are represented by yellow and red dots on the map.

Hover mouse over dot to see the name of the station.

Then click to see weather observations and forecasts.

To change the map : click on the green buttons with a black cross to zoom in, on the green button with a dash to zoom out, or on the green arrows for adjacent maps.


METAR-TAF: